Time;durP1;ratioP1;P1;durP2;ratioP2;P2;SDS_P1;SDS_P2;PMS_P1;PMS_P2;Temp;Humidity;BMP_temperature;BMP_pressure;BME280_temperature;BME280_humidity;BME280_pressure;Samples;Min_cycle;Max_cycle;Signal;HPM_P1;HPM_P2
2022/07/03 00:03:06;;;;;;;2.85;2.28;;;;;;;;;;6190986;28;20823;-78
2022/07/03 00:06:27;;;;;;;2.10;1.90;;;;;;;;;;6197945;28;20237;-79
2022/07/03 00:09:47;;;;;;;3.80;2.40;;;;;;;;;;6191025;28;20225;-78
2022/07/03 00:13:08;;;;;;;3.00;2.38;;;;;;;;;;6199590;28;20371;-78
2022/07/03 00:16:28;;;;;;;2.45;2.08;;;;;;;;;;6171033;28;20242;-77
2022/07/03 00:19:50;;;;;;;2.05;1.95;;;;;;;;;;6192844;28;20229;-77
2022/07/03 00:23:14;;;;;;;2.00;1.90;;;;;;;;;;6190121;28;20225;-79
2022/07/03 00:26:36;;;;;;;2.20;2.03;;;;;;;;;;6190359;28;20233;-78
2022/07/03 00:29:59;;;;;;;3.97;3.05;;;;;;;;;;6196504;28;20233;-79
2022/07/03 00:33:20;;;;;;;5.60;4.43;;;;;;;;;;6197741;28;20226;-79
2022/07/03 00:36:43;;;;;;;3.92;3.58;;;;;;;;;;6195789;28;20225;-78
2022/07/03 00:40:03;;;;;;;6.40;5.80;;;;;;;;;;6191452;28;20220;-77
2022/07/03 00:43:26;;;;;;;3.22;2.92;;;;;;;;;;6196201;28;20229;-78
2022/07/03 00:46:48;;;;;;;3.40;2.65;;;;;;;;;;6192896;28;20237;-80
2022/07/03 00:50:09;;;;;;;3.03;2.65;;;;;;;;;;6193434;28;20324;-79
2022/07/03 00:53:32;;;;;;;2.03;1.85;;;;;;;;;;6193780;28;20234;-79
2022/07/03 00:56:55;;;;;;;3.25;2.33;;;;;;;;;;6192503;28;20230;-80
2022/07/03 01:00:17;;;;;;;1.63;1.52;;;;;;;;;;6187868;28;20861;-77
2022/07/03 01:03:43;;;;;;;1.88;1.65;;;;;;;;;;6197641;28;20727;-78
2022/07/03 01:07:06;;;;;;;2.45;1.50;;;;;;;;;;6188274;28;20315;-78
2022/07/03 01:10:35;;;;;;;4.03;2.17;;;;;;;;;;6198311;28;20231;-78
2022/07/03 01:14:05;;;;;;;3.35;1.67;;;;;;;;;;6195673;28;20225;-79
2022/07/03 01:17:26;;;;;;;2.33;1.52;;;;;;;;;;6185597;28;20508;-78
2022/07/03 01:20:53;;;;;;;1.77;1.67;;;;;;;;;;6189455;28;20229;-78
2022/07/03 01:24:18;;;;;;;1.85;1.75;;;;;;;;;;6190918;28;20819;-78
2022/07/03 01:27:46;;;;;;;2.20;1.60;;;;;;;;;;6192052;28;20229;-79
2022/07/03 01:31:07;;;;;;;2.55;1.38;;;;;;;;;;6189761;28;20229;-77
2022/07/03 01:34:31;;;;;;;2.10;1.40;;;;;;;;;;6195095;28;20229;-77
2022/07/03 01:37:52;;;;;;;1.60;1.40;;;;;;;;;;6194912;28;20233;-78
2022/07/03 01:41:13;;;;;;;1.40;1.30;;;;;;;;;;6195540;28;20229;-79
2022/07/03 01:44:36;;;;;;;1.60;1.50;;;;;;;;;;6195052;28;20241;-78
2022/07/03 01:47:57;;;;;;;1.92;1.83;;;;;;;;;;6195144;28;20244;-79
2022/07/03 01:51:18;;;;;;;2.65;1.48;;;;;;;;;;6196285;28;20476;-79
2022/07/03 01:54:39;;;;;;;1.80;1.48;;;;;;;;;;6193375;28;20244;-77
2022/07/03 01:58:03;;;;;;;2.55;1.35;;;;;;;;;;6196914;28;20225;-77
2022/07/03 02:01:26;;;;;;;2.00;1.50;;;;;;;;;;6200084;28;20248;-78
2022/07/03 02:04:53;;;;;;;1.85;1.70;;;;;;;;;;6198363;28;20230;-78
2022/07/03 02:08:26;;;;;;;2.05;1.63;;;;;;;;;;6193319;28;20268;-77
2022/07/03 02:11:47;;;;;;;1.60;1.50;;;;;;;;;;6193902;28;20237;-78
2022/07/03 02:15:08;;;;;;;2.63;1.55;;;;;;;;;;6192192;28;20292;-77
2022/07/03 02:18:33;;;;;;;1.40;1.30;;;;;;;;;;6191880;28;20545;-78
2022/07/03 02:21:57;;;;;;;4.00;1.70;;;;;;;;;;6198751;28;20241;-77
2022/07/03 02:25:19;;;;;;;2.15;1.58;;;;;;;;;;6197320;28;20228;-79
2022/07/03 02:28:50;;;;;;;1.88;1.25;;;;;;;;;;6195948;28;20340;-78
2022/07/03 02:32:12;;;;;;;4.60;2.00;;;;;;;;;;6198186;28;20319;-79
2022/07/03 02:35:35;;;;;;;2.38;2.03;;;;;;;;;;6196104;28;20236;-77
2022/07/03 02:38:57;;;;;;;1.70;1.60;;;;;;;;;;6192546;28;20793;-76
2022/07/03 02:42:25;;;;;;;2.22;2.05;;;;;;;;;;6195732;28;20572;-77
2022/07/03 02:45:51;;;;;;;1.77;1.67;;;;;;;;;;6193577;28;20316;-78
2022/07/03 02:49:15;;;;;;;2.30;1.75;;;;;;;;;;6189594;28;20623;-78
2022/07/03 02:52:42;;;;;;;2.30;1.73;;;;;;;;;;6186060;28;20615;-77
2022/07/03 02:56:08;;;;;;;3.42;1.83;;;;;;;;;;6196786;28;20597;-80
2022/07/03 02:59:38;;;;;;;2.53;1.30;;;;;;;;;;6192320;28;20234;-77
2022/07/03 03:03:01;;;;;;;1.58;1.42;;;;;;;;;;6192366;28;20241;-78
2022/07/03 03:06:22;;;;;;;2.38;1.50;;;;;;;;;;6192477;28;20237;-77
2022/07/03 03:09:45;;;;;;;3.03;1.77;;;;;;;;;;6197836;28;20507;-78
2022/07/03 03:13:06;;;;;;;1.77;1.48;;;;;;;;;;6191769;28;20316;-78
2022/07/03 03:16:27;;;;;;;2.15;1.67;;;;;;;;;;6190288;28;20253;-77
2022/07/03 03:19:52;;;;;;;3.10;1.50;;;;;;;;;;6196857;28;20833;-79
2022/07/03 03:23:22;;;;;;;4.30;2.00;;;;;;;;;;6185444;28;20229;-78
2022/07/03 03:26:45;;;;;;;4.07;1.58;;;;;;;;;;6194493;28;20240;-78
2022/07/03 03:30:06;;;;;;;2.55;1.60;;;;;;;;;;6197375;28;20233;-78
2022/07/03 03:33:27;;;;;;;2.38;1.63;;;;;;;;;;6202495;28;20323;-79
2022/07/03 03:36:48;;;;;;;2.72;1.50;;;;;;;;;;6194690;28;20607;-79
2022/07/03 03:40:09;;;;;;;1.80;1.70;;;;;;;;;;6195057;28;21392;-79
2022/07/03 03:43:32;;;;;;;1.75;1.58;;;;;;;;;;6189774;28;20222;-78
2022/07/03 03:46:52;;;;;;;3.05;1.42;;;;;;;;;;6194604;28;20230;-78
2022/07/03 03:50:13;;;;;;;2.08;1.98;;;;;;;;;;6192704;28;20607;-76
2022/07/03 03:53:34;;;;;;;1.88;1.50;;;;;;;;;;6193683;28;20232;-78
2022/07/03 03:56:55;;;;;;;2.42;2.22;;;;;;;;;;6196209;28;20237;-78
2022/07/03 04:00:18;;;;;;;3.17;1.80;;;;;;;;;;6181310;28;20273;-78
2022/07/03 04:03:39;;;;;;;2.17;1.50;;;;;;;;;;6193417;28;20213;-78
2022/07/03 04:06:59;;;;;;;2.15;1.80;;;;;;;;;;6196403;28;20233;-79
2022/07/03 04:10:20;;;;;;;4.20;1.63;;;;;;;;;;6190470;28;20225;-78
2022/07/03 04:13:41;;;;;;;1.70;1.60;;;;;;;;;;6196902;28;20221;-78
2022/07/03 04:17:03;;;;;;;1.67;1.52;;;;;;;;;;6184052;28;20225;-79
2022/07/03 04:20:24;;;;;;;1.42;1.42;;;;;;;;;;6205261;28;20438;-80
2022/07/03 04:23:44;;;;;;;2.00;1.70;;;;;;;;;;6192545;28;20948;-78
2022/07/03 04:27:05;;;;;;;1.90;1.65;;;;;;;;;;6197253;28;20229;-79
2022/07/03 04:30:29;;;;;;;1.65;1.52;;;;;;;;;;6189889;28;20264;-77
2022/07/03 04:33:50;;;;;;;5.95;2.10;;;;;;;;;;6194216;28;20502;-78
2022/07/03 04:37:11;;;;;;;2.03;1.90;;;;;;;;;;6193956;28;20229;-80
2022/07/03 04:40:32;;;;;;;2.13;1.92;;;;;;;;;;6191842;28;20780;-79
2022/07/03 04:43:53;;;;;;;1.90;1.80;;;;;;;;;;6191606;28;20522;-79
2022/07/03 04:47:14;;;;;;;1.77;1.67;;;;;;;;;;6182131;28;20217;-78
2022/07/03 04:50:36;;;;;;;2.67;1.73;;;;;;;;;;6190823;28;20241;-78
2022/07/03 04:53:57;;;;;;;3.30;2.03;;;;;;;;;;6194319;28;20229;-77
2022/07/03 04:57:17;;;;;;;3.25;1.70;;;;;;;;;;6191981;28;20233;-77
2022/07/03 05:00:40;;;;;;;3.40;2.33;;;;;;;;;;6188829;28;20229;-78
2022/07/03 05:04:01;;;;;;;1.73;1.60;;;;;;;;;;6197011;28;20221;-78
2022/07/03 05:07:23;;;;;;;2.00;1.60;;;;;;;;;;6195676;28;20229;-79
2022/07/03 05:10:43;;;;;;;2.28;1.90;;;;;;;;;;6192915;28;20237;-76
2022/07/03 05:14:04;;;;;;;3.40;2.20;;;;;;;;;;6197834;28;20226;-77
2022/07/03 05:17:25;;;;;;;2.85;1.90;;;;;;;;;;6192603;28;20781;-78
2022/07/03 05:20:45;;;;;;;2.08;1.88;;;;;;;;;;6198179;28;20260;-78
2022/07/03 05:24:08;;;;;;;2.00;1.60;;;;;;;;;;6195705;28;20230;-77
2022/07/03 05:27:28;;;;;;;1.77;1.67;;;;;;;;;;6193378;28;27073;-79
2022/07/03 05:30:49;;;;;;;3.33;2.30;;;;;;;;;;6203943;28;20569;-79
2022/07/03 05:34:10;;;;;;;2.35;1.88;;;;;;;;;;6205055;28;20333;-77
2022/07/03 05:37:30;;;;;;;2.85;2.08;;;;;;;;;;6204662;28;20237;-78
2022/07/03 05:40:53;;;;;;;1.45;1.35;;;;;;;;;;6200639;28;20233;-78
2022/07/03 05:44:13;;;;;;;2.28;2.15;;;;;;;;;;6203855;28;20252;-78
2022/07/03 05:47:34;;;;;;;2.00;1.80;;;;;;;;;;6202466;28;20260;-77
2022/07/03 05:50:54;;;;;;;3.47;2.78;;;;;;;;;;6201764;28;20238;-79
2022/07/03 05:54:15;;;;;;;2.63;2.35;;;;;;;;;;6200108;28;20825;-78
2022/07/03 05:57:37;;;;;;;1.75;1.65;;;;;;;;;;6213923;28;20597;-79
2022/07/03 06:00:57;;;;;;;1.95;1.85;;;;;;;;;;6195905;28;20234;-79
2022/07/03 06:04:18;;;;;;;2.30;2.10;;;;;;;;;;6198050;28;20225;-79
2022/07/03 06:07:39;;;;;;;2.17;2.05;;;;;;;;;;6198571;28;20229;-79
2022/07/03 06:10:59;;;;;;;5.32;2.53;;;;;;;;;;6199889;28;20233;-78
2022/07/03 06:14:21;;;;;;;1.85;1.75;;;;;;;;;;6201586;28;20252;-78
2022/07/03 06:17:43;;;;;;;1.98;1.88;;;;;;;;;;6200047;28;20225;-78
2022/07/03 06:21:04;;;;;;;2.90;1.70;;;;;;;;;;6197939;28;20506;-78
2022/07/03 06:24:24;;;;;;;3.17;2.10;;;;;;;;;;6200629;28;20232;-79
2022/07/03 06:27:45;;;;;;;2.90;2.63;;;;;;;;;;6198709;28;20226;-78
2022/07/03 06:31:06;;;;;;;2.42;2.22;;;;;;;;;;6202763;28;20240;-78
2022/07/03 06:34:27;;;;;;;4.78;2.58;;;;;;;;;;6198672;28;20229;-78
2022/07/03 06:37:47;;;;;;;3.72;2.95;;;;;;;;;;6186396;28;20310;-78
2022/07/03 06:41:08;;;;;;;2.90;2.58;;;;;;;;;;6196871;28;20237;-77
2022/07/03 06:44:29;;;;;;;1.83;1.73;;;;;;;;;;6201790;28;20225;-78
2022/07/03 06:47:51;;;;;;;1.92;1.73;;;;;;;;;;6197194;28;20237;-77
2022/07/03 06:51:11;;;;;;;3.53;2.25;;;;;;;;;;6197637;28;20237;-78
2022/07/03 06:54:32;;;;;;;2.13;1.92;;;;;;;;;;6199702;28;20241;-78
2022/07/03 06:57:53;;;;;;;3.53;2.00;;;;;;;;;;6192187;28;20666;-78
2022/07/03 07:01:13;;;;;;;4.80;2.30;;;;;;;;;;6195595;28;20649;-77
2022/07/03 07:04:35;;;;;;;3.92;2.50;;;;;;;;;;6200858;28;20645;-78
2022/07/03 07:07:56;;;;;;;2.75;1.88;;;;;;;;;;6194011;28;20240;-78
2022/07/03 07:11:16;;;;;;;2.70;2.50;;;;;;;;;;6201050;28;20233;-77
2022/07/03 07:14:37;;;;;;;2.17;1.73;;;;;;;;;;6199813;28;20233;-77
2022/07/03 07:17:58;;;;;;;2.58;2.00;;;;;;;;;;6197469;28;20236;-78
2022/07/03 07:21:20;;;;;;;2.30;1.88;;;;;;;;;;6199260;28;20225;-77
2022/07/03 07:24:41;;;;;;;1.77;1.50;;;;;;;;;;6196263;28;20222;-77
2022/07/03 07:28:01;;;;;;;3.80;2.80;;;;;;;;;;6194727;28;20233;-77
2022/07/03 07:31:22;;;;;;;3.17;1.63;;;;;;;;;;6201726;28;20229;-77
2022/07/03 07:34:43;;;;;;;3.42;2.22;;;;;;;;;;6203737;28;20221;-77
2022/07/03 07:38:05;;;;;;;1.90;1.80;;;;;;;;;;6197597;28;20241;-76
2022/07/03 07:41:25;;;;;;;1.85;1.60;;;;;;;;;;6200456;28;20237;-78
2022/07/03 07:44:46;;;;;;;5.13;1.73;;;;;;;;;;6202394;28;20240;-76
2022/07/03 07:48:07;;;;;;;3.20;1.60;;;;;;;;;;6191222;28;20596;-77
2022/07/03 07:51:27;;;;;;;1.45;1.35;;;;;;;;;;6196268;28;20225;-76
2022/07/03 07:54:49;;;;;;;2.15;1.40;;;;;;;;;;6197702;28;20229;-76
2022/07/03 07:58:10;;;;;;;1.75;1.63;;;;;;;;;;6199088;28;20229;-76
2022/07/03 08:08:46;;;;;;;1.52;1.42;;;;;;;;;;6206009;28;20229;-76
2022/07/03 08:12:08;;;;;;;2.45;1.92;;;;;;;;;;6199044;28;21864;-78
2022/07/03 08:15:29;;;;;;;1.27;1.17;;;;;;;;;;6197704;28;20560;-76
2022/07/03 08:18:49;;;;;;;2.38;1.02;;;;;;;;;;6199245;28;20225;-78
2022/07/03 08:22:10;;;;;;;1.50;1.40;;;;;;;;;;6200784;28;20236;-76
2022/07/03 08:25:31;;;;;;;2.25;1.42;;;;;;;;;;6199730;28;20241;-77
2022/07/03 08:28:53;;;;;;;1.50;1.40;;;;;;;;;;6199680;28;20225;-77
2022/07/03 08:32:13;;;;;;;0.90;0.90;;;;;;;;;;6187629;28;20249;-83
2022/07/03 08:35:34;;;;;;;1.58;1.45;;;;;;;;;;6196712;28;20234;-79
2022/07/03 08:38:56;;;;;;;2.03;1.08;;;;;;;;;;6198391;28;20245;-82
2022/07/03 08:42:17;;;;;;;1.42;1.33;;;;;;;;;;6203995;28;20244;-83
2022/07/03 08:45:39;;;;;;;1.23;1.10;;;;;;;;;;6207420;28;20241;-79
2022/07/03 08:49:00;;;;;;;3.40;1.42;;;;;;;;;;6205294;28;20233;-82
2022/07/03 08:52:22;;;;;;;1.38;1.27;;;;;;;;;;6196135;28;20249;-83
2022/07/03 08:55:42;;;;;;;1.08;1.08;;;;;;;;;;6197487;28;20635;-82
2022/07/03 08:59:04;;;;;;;1.63;1.52;;;;;;;;;;6198045;28;20233;-85
2022/07/03 09:02:26;;;;;;;1.25;1.05;;;;;;;;;;6202560;28;20536;-82
2022/07/03 09:05:47;;;;;;;1.15;1.00;;;;;;;;;;6199484;28;20650;-84
2022/07/03 09:09:08;;;;;;;3.97;1.30;;;;;;;;;;6198717;28;20788;-82
2022/07/03 09:12:31;;;;;;;1.45;1.00;;;;;;;;;;6200381;28;20229;-82
2022/07/03 09:15:51;;;;;;;1.05;0.90;;;;;;;;;;6199744;28;20237;-83
2022/07/03 09:19:13;;;;;;;1.08;0.85;;;;;;;;;;6183384;28;20996;-82
2022/07/03 09:22:35;;;;;;;2.40;1.50;;;;;;;;;;6194498;28;20217;-81
2022/07/03 09:25:56;;;;;;;10.70;6.38;;;;;;;;;;6186296;28;20237;-72
2022/07/03 09:29:17;;;;;;;142.80;131.35;;;;;;;;;;6189546;28;20320;-72
2022/07/03 09:32:44;;;;;;;69.25;64.13;;;;;;;;;;6183733;28;20622;-68
2022/07/03 09:36:06;;;;;;;404.67;369.30;;;;;;;;;;6199623;28;20216;-68
2022/07/03 09:39:29;;;;;;;529.13;481.40;;;;;;;;;;6188404;28;20663;-68
2022/07/03 09:42:57;;;;;;;33.63;31.13;;;;;;;;;;6187997;28;20229;-72
2022/07/03 09:46:18;;;;;;;308.65;274.95;;;;;;;;;;6198274;28;20502;-71
2022/07/03 09:49:46;;;;;;;406.88;380.92;;;;;;;;;;6191815;28;20233;-70
2022/07/03 09:53:08;;;;;;;187.85;175.15;;;;;;;;;;6186947;28;20713;-70
2022/07/03 09:56:33;;;;;;;17.95;16.73;;;;;;;;;;6191081;28;20225;-73
2022/07/03 10:00:09;;;;;;;5.88;5.30;;;;;;;;;;6189870;28;20526;-73
2022/07/03 10:03:31;;;;;;;4.55;3.08;;;;;;;;;;6199458;28;20229;-73
2022/07/03 10:06:53;;;;;;;2.40;1.45;;;;;;;;;;6192264;28;20237;-73
2022/07/03 10:10:15;;;;;;;2.47;1.90;;;;;;;;;;6200551;28;20230;-73
2022/07/03 10:13:38;;;;;;;2.17;1.88;;;;;;;;;;6209688;28;20756;-73
2022/07/03 10:17:00;;;;;;;1.88;1.45;;;;;;;;;;6202994;28;20225;-73
2022/07/03 10:20:24;;;;;;;2.55;1.45;;;;;;;;;;6198456;28;20221;-73
2022/07/03 10:23:45;;;;;;;2.20;1.55;;;;;;;;;;6200282;28;20233;-72
2022/07/03 10:27:07;;;;;;;2.30;1.40;;;;;;;;;;6201845;28;20225;-72
2022/07/03 10:30:28;;;;;;;1.35;1.20;;;;;;;;;;6191144;28;20229;-73
2022/07/03 10:33:49;;;;;;;1.25;1.15;;;;;;;;;;6196279;28;20245;-73
2022/07/03 10:37:11;;;;;;;2.40;1.00;;;;;;;;;;6197410;28;20249;-72
2022/07/03 10:47:53;;;;;;;3.53;1.33;;;;;;;;;;6187222;28;20260;-70
2022/07/03 10:51:14;;;;;;;1.40;1.10;;;;;;;;;;6202072;28;20229;-70
2022/07/03 10:54:36;;;;;;;1.95;1.65;;;;;;;;;;6195462;28;20252;-70
2022/07/03 10:58:09;;;;;;;3.40;1.30;;;;;;;;;;6195430;28;20241;-69
2022/07/03 11:01:32;;;;;;;2.20;1.15;;;;;;;;;;6194369;28;20425;-68
2022/07/03 11:05:12;;;;;;;1.88;1.38;;;;;;;;;;6200874;28;20856;-70
2022/07/03 11:08:52;;;;;;;2.15;1.05;;;;;;;;;;6192164;28;20237;-73
2022/07/03 11:12:13;;;;;;;4.15;1.95;;;;;;;;;;6189632;28;20382;-76
2022/07/03 11:15:35;;;;;;;1.48;1.38;;;;;;;;;;6191642;28;20495;-75
2022/07/03 11:18:59;;;;;;;3.13;1.95;;;;;;;;;;6205076;28;20796;-77
2022/07/03 11:22:21;;;;;;;2.00;1.45;;;;;;;;;;6181457;28;20630;-69
2022/07/03 11:25:42;;;;;;;1.77;1.40;;;;;;;;;;6202485;28;20498;-69
2022/07/03 11:29:03;;;;;;;2.22;1.40;;;;;;;;;;6197001;28;20317;-69
2022/07/03 11:32:43;;;;;;;3.05;1.30;;;;;;;;;;6200213;28;20333;-69
2022/07/03 11:36:05;;;;;;;2.45;1.33;;;;;;;;;;6203439;28;20311;-70
2022/07/03 11:39:26;;;;;;;2.42;1.42;;;;;;;;;;6203703;28;20232;-70
2022/07/03 11:42:47;;;;;;;1.73;1.58;;;;;;;;;;6200981;28;20241;-70
2022/07/03 11:46:07;;;;;;;1.05;1.02;;;;;;;;;;6190082;28;21752;-70
2022/07/03 11:49:28;;;;;;;2.13;1.13;;;;;;;;;;6182165;28;20634;-69
2022/07/03 11:52:50;;;;;;;2.08;1.88;;;;;;;;;;6178573;28;20752;-70
2022/07/03 11:56:12;;;;;;;1.80;1.25;;;;;;;;;;6171118;28;20237;-69
2022/07/03 11:59:33;;;;;;;2.50;1.00;;;;;;;;;;6178289;28;20238;-69
2022/07/03 12:02:54;;;;;;;2.42;1.58;;;;;;;;;;6178904;28;20225;-68
2022/07/03 12:06:15;;;;;;;1.95;1.40;;;;;;;;;;6176460;28;20601;-69
2022/07/03 12:09:37;;;;;;;1.90;1.55;;;;;;;;;;6176231;28;20225;-68
2022/07/03 12:12:58;;;;;;;1.85;1.10;;;;;;;;;;6176048;28;20653;-69
2022/07/03 12:16:18;;;;;;;1.95;1.17;;;;;;;;;;6191642;28;20241;-70
2022/07/03 12:19:45;;;;;;;1.98;1.02;;;;;;;;;;6203568;28;20603;-69
2022/07/03 12:23:05;;;;;;;1.58;1.40;;;;;;;;;;6205458;28;20233;-69
2022/07/03 12:26:31;;;;;;;1.70;1.20;;;;;;;;;;6207563;28;20237;-69
2022/07/03 12:29:52;;;;;;;0.98;0.80;;;;;;;;;;6206794;28;20221;-69
2022/07/03 12:33:13;;;;;;;2.10;1.35;;;;;;;;;;6204425;28;20241;-69
2022/07/03 12:36:34;;;;;;;4.95;1.52;;;;;;;;;;6206797;28;20233;-70
2022/07/03 12:39:57;;;;;;;6.47;2.00;;;;;;;;;;6202877;28;20634;-70
2022/07/03 12:43:19;;;;;;;4.25;1.75;;;;;;;;;;6205377;28;20233;-70
2022/07/03 12:46:42;;;;;;;1.67;1.58;;;;;;;;;;6201601;28;20252;-70
2022/07/03 12:50:04;;;;;;;2.35;1.40;;;;;;;;;;6203158;28;20230;-69
2022/07/03 12:53:28;;;;;;;4.90;1.50;;;;;;;;;;6201657;28;20674;-70
2022/07/03 12:59:16;;;;;;;1.58;1.00;;;;;;;;;;6198217;28;20621;-71
2022/07/03 13:00:44;;;;;;;2.03;1.33;;;;;;;;;;6203586;28;20229;-70
2022/07/03 13:04:04;;;;;;;1.50;1.15;;;;;;;;;;6208496;28;20236;-70
2022/07/03 13:07:28;;;;;;;1.77;1.20;;;;;;;;;;6205173;28;20229;-70
2022/07/03 13:10:55;;;;;;;3.78;3.40;;;;;;;;;;6198670;28;20233;-70
2022/07/03 13:14:17;;;;;;;1.92;1.80;;;;;;;;;;6196319;28;20603;-68
2022/07/03 13:17:56;;;;;;;2.33;1.30;;;;;;;;;;6196894;28;20240;-70
2022/07/03 13:21:16;;;;;;;1.73;1.20;;;;;;;;;;6197523;28;20867;-71
2022/07/03 13:24:37;;;;;;;3.28;2.10;;;;;;;;;;6205776;28;20221;-69
2022/07/03 13:28:04;;;;;;;1.98;1.45;;;;;;;;;;6203425;28;20225;-70
2022/07/03 13:31:25;;;;;;;1.15;1.10;;;;;;;;;;6201796;28;20226;-69
2022/07/03 13:34:47;;;;;;;2.17;1.38;;;;;;;;;;6206825;28;20566;-68
2022/07/03 13:38:07;;;;;;;1.73;1.23;;;;;;;;;;6200316;28;20257;-69
2022/07/03 13:41:28;;;;;;;1.25;1.00;;;;;;;;;;6184883;28;20229;-70
2022/07/03 13:44:49;;;;;;;1.92;1.00;;;;;;;;;;6197183;28;20222;-69
2022/07/03 13:48:10;;;;;;;1.77;1.00;;;;;;;;;;6207891;28;20229;-71
2022/07/03 13:51:32;;;;;;;1.20;0.98;;;;;;;;;;6203975;28;20237;-71
2022/07/03 13:54:53;;;;;;;2.03;1.40;;;;;;;;;;6181948;28;20230;-70
2022/07/03 13:58:14;;;;;;;0.95;0.80;;;;;;;;;;6196480;28;20237;-71
2022/07/03 14:01:34;;;;;;;0.63;0.63;;;;;;;;;;6196971;28;20320;-71
2022/07/03 14:04:55;;;;;;;2.45;1.00;;;;;;;;;;6203960;28;20658;-68
2022/07/03 14:08:17;;;;;;;1.17;1.00;;;;;;;;;;6197288;28;20249;-70
2022/07/03 14:11:37;;;;;;;2.05;0.90;;;;;;;;;;6198700;28;20237;-70
2022/07/03 14:14:58;;;;;;;1.63;1.17;;;;;;;;;;6194526;28;20236;-71
2022/07/03 14:18:18;;;;;;;1.45;1.10;;;;;;;;;;6195223;28;20233;-69
2022/07/03 14:21:39;;;;;;;2.10;0.98;;;;;;;;;;6192077;28;20234;-69
2022/07/03 14:25:01;;;;;;;1.65;0.80;;;;;;;;;;6193182;28;20233;-68
2022/07/03 14:35:37;;;;;;;1.83;1.00;;;;;;;;;;6183335;28;20249;-74
2022/07/03 14:38:58;;;;;;;0.95;0.95;;;;;;;;;;6182993;28;20237;-73
2022/07/03 14:42:19;;;;;;;2.22;1.23;;;;;;;;;;6192256;28;20233;-75
2022/07/03 14:45:40;;;;;;;1.55;0.82;;;;;;;;;;6197480;28;20233;-73
2022/07/03 14:49:01;;;;;;;1.02;0.93;;;;;;;;;;6197764;28;20630;-73
2022/07/03 14:52:22;;;;;;;1.05;0.68;;;;;;;;;;6201949;28;20237;-74
2022/07/03 14:55:42;;;;;;;1.40;1.17;;;;;;;;;;6188747;28;20229;-73
2022/07/03 14:59:08;;;;;;;1.95;1.00;;;;;;;;;;6194376;28;20233;-73
2022/07/03 15:02:33;;;;;;;1.60;0.82;;;;;;;;;;6192137;28;20494;-71
2022/07/03 15:05:55;;;;;;;1.25;0.73;;;;;;;;;;6194094;28;20232;-72
2022/07/03 15:09:18;;;;;;;1.40;1.27;;;;;;;;;;6203790;28;20556;-71
2022/07/03 15:12:41;;;;;;;2.28;1.30;;;;;;;;;;6200464;28;20233;-73
2022/07/03 15:16:03;;;;;;;1.13;1.08;;;;;;;;;;6195852;28;20233;-72
2022/07/03 15:19:24;;;;;;;24.27;22.52;;;;;;;;;;6189321;28;20320;-72
2022/07/03 15:22:45;;;;;;;7.30;6.80;;;;;;;;;;6195116;28;20526;-75
2022/07/03 15:26:06;;;;;;;404.80;375.63;;;;;;;;;;6198707;28;20256;-78
2022/07/03 15:29:27;;;;;;;98.15;88.20;;;;;;;;;;6198420;28;20269;-69
2022/07/03 15:32:50;;;;;;;1322.28;999.90;;;;;;;;;;6199746;28;20237;-69
2022/07/03 15:36:11;;;;;;;84.50;78.00;;;;;;;;;;6189790;28;20237;-72
2022/07/03 15:39:34;;;;;;;8.13;6.28;;;;;;;;;;6197598;28;20229;-72
2022/07/03 15:43:03;;;;;;;2.53;2.33;;;;;;;;;;6199519;28;20229;-73
2022/07/03 15:46:28;;;;;;;2.22;1.38;;;;;;;;;;6198568;28;20232;-73
2022/07/03 15:49:54;;;;;;;5.35;1.77;;;;;;;;;;6198172;28;20264;-72
2022/07/03 15:53:16;;;;;;;7.20;1.25;;;;;;;;;;6190818;28;20238;-75
2022/07/03 15:56:37;;;;;;;2.45;1.55;;;;;;;;;;6186975;28;20529;-75
2022/07/03 16:00:00;;;;;;;2.58;1.17;;;;;;;;;;6192321;28;20232;-72
2022/07/03 16:03:27;;;;;;;11.93;2.05;;;;;;;;;;6178290;28;20594;-71
2022/07/03 16:06:49;;;;;;;5.28;1.30;;;;;;;;;;6181373;28;20237;-78
2022/07/03 16:10:11;;;;;;;3.45;1.33;;;;;;;;;;6168136;28;20257;-76
2022/07/03 16:13:34;;;;;;;1.80;1.00;;;;;;;;;;6184731;28;20624;-75
2022/07/03 16:16:54;;;;;;;1.42;1.05;;;;;;;;;;6172746;28;20237;-75
2022/07/03 16:20:15;;;;;;;3.25;1.08;;;;;;;;;;6188636;28;20228;-73
2022/07/03 16:23:37;;;;;;;3.25;1.23;;;;;;;;;;6194217;28;20319;-74
2022/07/03 16:26:58;;;;;;;2.60;1.58;;;;;;;;;;6180895;28;20622;-72
2022/07/03 16:30:19;;;;;;;2.13;1.08;;;;;;;;;;6182149;28;20694;-73
2022/07/03 16:33:42;;;;;;;2.25;0.90;;;;;;;;;;6186099;28;20566;-70
2022/07/03 16:37:07;;;;;;;1.67;1.30;;;;;;;;;;6189459;28;20233;-71
2022/07/03 16:40:29;;;;;;;1.13;0.88;;;;;;;;;;6190891;28;20232;-71
2022/07/03 16:43:53;;;;;;;1.30;1.13;;;;;;;;;;6194117;28;20229;-71
2022/07/03 16:47:13;;;;;;;1.65;0.90;;;;;;;;;;6192959;28;20645;-72
2022/07/03 16:50:34;;;;;;;1.50;1.20;;;;;;;;;;6179570;28;20225;-70
2022/07/03 16:53:55;;;;;;;3.08;1.40;;;;;;;;;;6194496;28;20229;-70
2022/07/03 16:57:17;;;;;;;2.33;1.10;;;;;;;;;;6192033;28;20232;-70
2022/07/03 17:00:39;;;;;;;2.60;0.98;;;;;;;;;;6181849;28;20237;-69
2022/07/03 17:04:01;;;;;;;1.70;0.95;;;;;;;;;;6187724;28;20229;-69
2022/07/03 17:07:22;;;;;;;2.45;1.15;;;;;;;;;;6174916;28;20237;-69
2022/07/03 17:10:44;;;;;;;4.20;1.60;;;;;;;;;;6186264;28;20303;-70
2022/07/03 17:14:06;;;;;;;7.07;2.03;;;;;;;;;;6192086;28;20237;-71
2022/07/03 17:17:27;;;;;;;1.35;1.08;;;;;;;;;;6188404;28;20232;-72
2022/07/03 17:20:48;;;;;;;3.03;1.30;;;;;;;;;;6185268;28;20240;-72
2022/07/03 17:24:09;;;;;;;2.85;1.05;;;;;;;;;;6189715;28;20320;-71
2022/07/03 17:27:31;;;;;;;1.73;1.20;;;;;;;;;;6192609;28;20234;-71
2022/07/03 17:30:55;;;;;;;1.45;1.25;;;;;;;;;;6191310;28;20237;-70
2022/07/03 17:34:18;;;;;;;2.53;1.45;;;;;;;;;;6197439;28;20252;-68
2022/07/03 17:37:39;;;;;;;2.38;1.17;;;;;;;;;;6195256;28;20276;-69
2022/07/03 17:41:02;;;;;;;2.90;1.27;;;;;;;;;;6196737;28;20412;-69
2022/07/03 17:44:23;;;;;;;4.22;1.20;;;;;;;;;;6198480;28;20550;-69
2022/07/03 17:47:46;;;;;;;3.92;1.88;;;;;;;;;;6200739;28;20241;-69
2022/07/03 17:51:07;;;;;;;1.83;1.27;;;;;;;;;;6202738;28;20229;-70
2022/07/03 17:54:28;;;;;;;1.80;1.70;;;;;;;;;;6195651;28;20240;-68
2022/07/03 17:57:50;;;;;;;3.00;2.03;;;;;;;;;;6188080;28;20306;-69
2022/07/03 18:01:10;;;;;;;1.45;1.35;;;;;;;;;;6180775;28;20324;-70
2022/07/03 18:04:32;;;;;;;2.17;1.23;;;;;;;;;;6178050;28;20244;-69
2022/07/03 18:07:57;;;;;;;2.00;1.48;;;;;;;;;;6177103;28;20233;-75
2022/07/03 18:11:24;;;;;;;2.95;1.65;;;;;;;;;;6165566;28;23268;-68
2022/07/03 18:14:46;;;;;;;2.10;1.55;;;;;;;;;;6171762;28;20233;-68
2022/07/03 18:18:14;;;;;;;1.23;1.13;;;;;;;;;;6172866;28;20229;-67
2022/07/03 18:21:38;;;;;;;1.98;1.55;;;;;;;;;;6170861;28;20285;-67
2022/07/03 18:25:03;;;;;;;2.20;2.00;;;;;;;;;;6178738;28;20319;-68
2022/07/03 18:28:25;;;;;;;1.98;1.65;;;;;;;;;;6194688;28;20502;-67
2022/07/03 18:31:46;;;;;;;3.03;1.48;;;;;;;;;;6196861;28;20276;-69
2022/07/03 18:35:07;;;;;;;1.52;1.40;;;;;;;;;;6199799;28;20236;-68
2022/07/03 18:38:30;;;;;;;2.65;1.63;;;;;;;;;;6193559;28;20225;-68
2022/07/03 18:41:51;;;;;;;1.60;1.50;;;;;;;;;;6194028;28;20236;-67
2022/07/03 18:45:13;;;;;;;2.50;1.70;;;;;;;;;;6196251;28;20553;-69
2022/07/03 18:48:33;;;;;;;2.50;1.80;;;;;;;;;;6200886;28;20570;-69
2022/07/03 18:51:56;;;;;;;3.38;1.50;;;;;;;;;;6204294;28;20233;-68
2022/07/03 18:55:23;;;;;;;2.40;1.38;;;;;;;;;;6201391;28;20320;-68
2022/07/03 18:58:46;;;;;;;2.67;1.60;;;;;;;;;;6188086;28;20229;-67
2022/07/03 19:02:13;;;;;;;2.50;1.83;;;;;;;;;;6199092;28;20488;-68
2022/07/03 19:05:38;;;;;;;1.30;0.90;;;;;;;;;;6201887;28;20618;-68
2022/07/03 19:09:02;;;;;;;2.25;0.85;;;;;;;;;;6205460;28;20530;-67
2022/07/03 19:12:28;;;;;;;1.13;1.02;;;;;;;;;;6203314;28;20225;-67
2022/07/03 19:15:51;;;;;;;3.42;1.75;;;;;;;;;;6198858;28;20249;-68
2022/07/03 19:19:12;;;;;;;1.75;1.55;;;;;;;;;;6197948;28;20257;-68
2022/07/03 19:22:33;;;;;;;2.30;1.52;;;;;;;;;;6196734;28;20225;-67
2022/07/03 19:25:54;;;;;;;1.15;1.13;;;;;;;;;;6199400;28;20237;-68
2022/07/03 19:29:16;;;;;;;1.48;1.30;;;;;;;;;;6200991;28;20320;-69
2022/07/03 19:32:37;;;;;;;1.45;1.08;;;;;;;;;;6199342;28;20499;-68
2022/07/03 19:35:58;;;;;;;1.85;1.30;;;;;;;;;;6205981;28;20253;-69
2022/07/03 19:39:18;;;;;;;2.85;1.55;;;;;;;;;;6201435;28;20229;-68
2022/07/03 19:42:41;;;;;;;1.92;1.10;;;;;;;;;;6203053;28;20295;-67
2022/07/03 19:46:05;;;;;;;2.95;1.55;;;;;;;;;;6197806;28;20237;-68
2022/07/03 19:49:25;;;;;;;1.77;1.17;;;;;;;;;;6203425;28;21200;-69
2022/07/03 19:52:46;;;;;;;2.63;1.33;;;;;;;;;;6198333;28;20228;-70
2022/07/03 19:56:09;;;;;;;4.10;1.30;;;;;;;;;;6199293;28;20650;-68
2022/07/03 19:59:29;;;;;;;2.47;2.00;;;;;;;;;;6189278;28;20245;-69
2022/07/03 20:02:51;;;;;;;1.40;1.30;;;;;;;;;;6196941;28;20234;-69
2022/07/03 20:06:12;;;;;;;1.77;1.63;;;;;;;;;;6197404;28;20241;-68
2022/07/03 20:09:33;;;;;;;5.15;1.52;;;;;;;;;;6189154;28;20229;-69
2022/07/03 20:12:55;;;;;;;4.15;1.60;;;;;;;;;;6181187;28;20230;-67
2022/07/03 20:16:15;;;;;;;1.33;1.23;;;;;;;;;;6193755;28;20232;-68
2022/07/03 20:19:37;;;;;;;1.77;1.20;;;;;;;;;;6200046;28;20233;-69
2022/07/03 20:23:00;;;;;;;2.45;0.93;;;;;;;;;;6189696;28;20225;-69
2022/07/03 20:26:21;;;;;;;2.60;1.40;;;;;;;;;;6196625;28;20230;-70
2022/07/03 20:29:42;;;;;;;1.63;1.20;;;;;;;;;;6191621;28;20241;-70
2022/07/03 20:33:05;;;;;;;1.27;1.15;;;;;;;;;;6189681;28;20245;-69